Time;durP1;ratioP1;P1;durP2;ratioP2;P2;SDS_P1;SDS_P2;PMS_P1;PMS_P2;Temp;Humidity;BMP_temperature;BMP_pressure;BME280_temperature;BME280_humidity;BME280_pressure;Samples;Min_cycle;Max_cycle;Signal;HPM_P1;HPM_P2
2021/06/08 00:00:31;;;;;;;0.43;0.43;;;19.50;91.30;;;;;;4401020;32;20065;-60
2021/06/08 00:02:57;;;;;;;0.40;0.30;;;19.50;91.50;;;;;;4414842;32;20096;-60
2021/06/08 00:05:23;;;;;;;1.55;0.50;;;19.50;91.70;;;;;;4414343;32;20077;-61
2021/06/08 00:07:48;;;;;;;0.88;0.55;;;19.50;92.00;;;;;;4401356;32;20527;-60
2021/06/08 00:10:14;;;;;;;1.00;0.35;;;19.50;92.40;;;;;;4388381;32;20078;-61
2021/06/08 00:12:40;;;;;;;0.30;0.30;;;19.40;92.60;;;;;;4404890;32;20388;-61
2021/06/08 00:15:07;;;;;;;1.27;0.90;;;19.40;92.90;;;;;;4415868;32;20081;-60
2021/06/08 00:17:33;;;;;;;0.47;0.47;;;19.40;93.20;;;;;;4404149;32;20073;-59
2021/06/08 00:19:59;;;;;;;0.68;0.68;;;19.30;93.50;;;;;;4414829;32;20488;-59
2021/06/08 00:22:25;;;;;;;0.40;0.40;;;19.30;93.80;;;;;;4415665;32;20560;-58
2021/06/08 00:24:50;;;;;;;0.47;0.47;;;19.20;93.90;;;;;;4414442;32;20154;-59
2021/06/08 00:27:16;;;;;;;0.43;0.43;;;19.20;94.30;;;;;;4414871;32;20514;-61
2021/06/08 00:29:41;;;;;;;0.30;0.30;;;19.10;94.50;;;;;;4413849;32;20073;-60
2021/06/08 00:32:07;;;;;;;0.70;0.70;;;19.10;94.80;;;;;;4414032;32;20061;-61
2021/06/08 00:34:33;;;;;;;2.35;0.60;;;19.00;95.00;;;;;;4401653;32;20534;-61
2021/06/08 00:36:58;;;;;;;2.65;0.43;;;19.00;95.20;;;;;;4414905;32;20124;-60
2021/06/08 00:39:24;;;;;;;0.47;0.47;;;19.10;95.20;;;;;;4414857;32;20140;-62
2021/06/08 00:41:49;;;;;;;0.98;0.60;;;18.90;95.50;;;;;;4413893;32;20058;-59
2021/06/08 00:44:17;;;;;;;1.27;0.37;;;18.80;95.90;;;;;;4414308;32;20070;-61
2021/06/08 00:46:44;;;;;;;0.30;0.30;;;18.90;96.00;;;;;;4414904;32;20852;-61
2021/06/08 00:49:11;;;;;;;0.35;0.35;;;18.90;96.00;;;;;;4400630;32;20065;-61
2021/06/08 00:51:37;;;;;;;0.60;0.50;;;18.90;96.00;;;;;;4388796;32;20073;-60
2021/06/08 00:54:06;;;;;;;0.40;0.40;;;18.70;96.50;;;;;;4401654;32;20081;-61
2021/06/08 00:56:33;;;;;;;0.40;0.40;;;18.60;96.80;;;;;;4400861;32;20065;-60
2021/06/08 00:58:59;;;;;;;0.47;0.47;;;18.70;96.80;;;;;;4403844;32;20424;-60
2021/06/08 01:01:24;;;;;;;0.28;0.28;;;18.70;96.80;;;;;;4428741;32;20070;-59
2021/06/08 01:03:50;;;;;;;1.42;0.57;;;18.80;96.60;;;;;;4402956;32;20065;-61
2021/06/08 01:06:15;;;;;;;1.37;0.55;;;18.70;96.90;;;;;;4429632;32;20557;-61
2021/06/08 01:08:40;;;;;;;4.40;1.45;;;18.80;96.80;;;;;;4429856;32;20065;-59
2021/06/08 01:11:06;;;;;;;0.68;0.68;;;18.80;96.60;;;;;;4429070;32;20061;-60
2021/06/08 01:13:32;;;;;;;0.45;0.45;;;18.70;96.90;;;;;;4428126;32;20097;-61
2021/06/08 01:15:58;;;;;;;0.52;0.50;;;18.50;97.50;;;;;;4429540;32;20495;-62
2021/06/08 01:18:23;;;;;;;1.33;0.60;;;18.40;97.80;;;;;;4429890;32;20078;-61
2021/06/08 01:20:59;;;;;;;0.50;0.50;;;18.30;98.50;;;;;;4429056;32;20299;-61
2021/06/08 01:23:25;;;;;;;0.45;0.45;;;18.10;98.90;;;;;;4429038;32;20072;-60
2021/06/08 01:25:50;;;;;;;2.00;0.85;;;18.00;99.50;;;;;;4428831;32;20057;-61
2021/06/08 01:28:17;;;;;;;0.47;0.47;;;17.90;99.90;;;;;;4429564;32;20518;-60
2021/06/08 01:30:43;;;;;;;28.15;2.25;;;17.80;99.90;;;;;;4427787;32;20073;-60
2021/06/08 01:33:09;;;;;;;0.35;0.35;;;17.80;99.90;;;;;;4428251;32;20082;-61
2021/06/08 01:35:36;;;;;;;4.43;0.62;;;17.90;99.90;;;;;;4429725;32;20070;-60
2021/06/08 01:38:02;;;;;;;1.20;0.70;;;17.90;99.90;;;;;;4429255;32;20124;-61
2021/06/08 01:40:27;;;;;;;0.88;0.80;;;18.10;99.90;;;;;;4428628;32;20078;-61
2021/06/08 01:42:53;;;;;;;2.42;0.80;;;18.00;99.90;;;;;;4415685;32;20120;-60
2021/06/08 01:45:18;;;;;;;0.40;0.40;;;18.00;99.90;;;;;;4428465;32;20357;-61
2021/06/08 01:47:44;;;;;;;0.98;0.60;;;18.00;99.90;;;;;;4429420;32;20590;-58
2021/06/08 01:50:10;;;;;;;0.77;0.60;;;17.90;99.90;;;;;;4429051;32;20471;-61
2021/06/08 01:52:44;;;;;;;0.45;0.45;;;17.80;99.90;;;;;;4414555;32;20132;-59
2021/06/08 01:55:13;;;;;;;0.73;0.55;;;18.00;99.90;;;;;;4428068;32;20168;-58
2021/06/08 01:57:47;;;;;;;0.52;0.50;;;17.90;99.90;;;;;;4428548;32;20074;-59
2021/06/08 02:00:36;;;;;;;1.65;1.05;;;17.90;99.90;;;;;;4431503;32;20065;-59
2021/06/08 02:03:15;;;;;;;0.28;0.28;;;17.80;99.90;;;;;;4407151;32;20081;-61
2021/06/08 02:06:00;;;;;;;0.85;0.80;;;17.80;99.90;;;;;;4418691;32;20112;-61
2021/06/08 02:08:54;;;;;;;0.40;0.40;;;17.70;99.90;;;;;;4432404;32;20073;-61
2021/06/08 02:11:31;;;;;;;0.43;0.43;;;17.90;99.90;;;;;;4419482;32;20061;-58
2021/06/08 02:14:08;;;;;;;0.68;0.68;;;18.00;99.90;;;;;;4418866;32;20116;-59
2021/06/08 02:16:38;;;;;;;0.45;0.45;;;17.80;99.90;;;;;;4421026;32;20065;-60
2021/06/08 02:19:05;;;;;;;0.45;0.45;;;17.80;99.90;;;;;;4431906;32;20072;-60
2021/06/08 02:21:35;;;;;;;0.75;0.65;;;17.80;99.90;;;;;;4431644;32;20085;-61
2021/06/08 02:24:03;;;;;;;0.82;0.80;;;17.60;99.90;;;;;;4417363;32;20073;-61
2021/06/08 02:26:31;;;;;;;2.25;0.93;;;17.50;99.90;;;;;;4431118;32;20061;-61
2021/06/08 02:28:58;;;;;;;1.15;0.60;;;17.40;99.90;;;;;;4431304;32;20073;-61
2021/06/08 02:31:25;;;;;;;0.75;0.70;;;17.40;99.90;;;;;;4418036;32;20057;-61
2021/06/08 02:33:51;;;;;;;1.92;0.90;;;17.40;99.90;;;;;;4417592;32;20490;-61
2021/06/08 02:36:18;;;;;;;2.00;0.70;;;17.30;99.90;;;;;;4431834;32;20419;-60
2021/06/08 02:38:45;;;;;;;1.55;0.95;;;17.30;99.90;;;;;;4416271;32;20534;-60
2021/06/08 02:41:12;;;;;;;0.60;0.60;;;17.40;99.90;;;;;;4417394;32;20062;-60
2021/06/08 02:43:38;;;;;;;4.95;0.95;;;17.60;99.90;;;;;;4416219;32;20070;-58
2021/06/08 02:46:07;;;;;;;0.50;0.50;;;17.50;99.90;;;;;;4417375;32;20057;-59
2021/06/08 02:48:34;;;;;;;0.70;0.70;;;17.40;99.90;;;;;;4416461;32;20102;-60
2021/06/08 02:51:00;;;;;;;0.45;0.45;;;17.40;99.90;;;;;;4416301;32;20074;-61
2021/06/08 02:53:28;;;;;;;3.15;0.80;;;17.50;99.90;;;;;;4417265;32;20078;-61
2021/06/08 02:55:54;;;;;;;0.35;0.35;;;17.60;99.90;;;;;;4416464;32;20412;-60
2021/06/08 02:58:21;;;;;;;0.37;0.37;;;17.80;99.90;;;;;;4417005;32;20069;-61
2021/06/08 03:00:47;;;;;;;0.43;0.43;;;17.80;99.90;;;;;;4430707;32;20069;-61
2021/06/08 03:03:18;;;;;;;0.50;0.50;;;17.90;99.90;;;;;;4430665;32;20074;-59
2021/06/08 03:05:49;;;;;;;0.45;0.43;;;17.80;99.90;;;;;;4431938;32;20068;-61
2021/06/08 03:08:29;;;;;;;0.60;0.60;;;17.60;99.90;;;;;;4404113;32;20169;-61
2021/06/08 03:10:56;;;;;;;0.35;0.35;;;17.60;99.90;;;;;;4416017;32;20069;-60
2021/06/08 03:13:22;;;;;;;1.37;0.70;;;17.70;99.90;;;;;;4408836;32;20116;-61
2021/06/08 03:15:52;;;;;;;0.30;0.30;;;17.90;99.90;;;;;;4415584;32;20401;-60
2021/06/08 03:18:24;;;;;;;1.15;0.60;;;17.90;99.90;;;;;;4445324;32;20069;-61
2021/06/08 03:21:01;;;;;;;1.52;1.23;;;18.00;99.90;;;;;;4432749;32;20448;-60
2021/06/08 03:23:30;;;;;;;0.40;0.40;;;17.80;99.90;;;;;;4415988;32;20077;-61
2021/06/08 03:25:59;;;;;;;1.55;0.90;;;17.70;99.90;;;;;;4414784;32;20502;-60
2021/06/08 03:28:27;;;;;;;0.40;0.40;;;17.70;99.90;;;;;;4414191;32;20164;-61
2021/06/08 03:30:54;;;;;;;1.40;1.15;;;17.60;99.90;;;;;;4402358;32;20061;-61
2021/06/08 03:33:20;;;;;;;4.50;0.52;;;17.70;99.90;;;;;;4414935;32;20068;-60
2021/06/08 03:35:48;;;;;;;0.68;0.50;;;17.80;99.90;;;;;;4402127;32;20138;-61
2021/06/08 03:38:15;;;;;;;2.62;1.33;;;17.90;99.90;;;;;;4401223;32;20082;-60
2021/06/08 03:40:41;;;;;;;2.03;0.85;;;18.10;99.90;;;;;;4401227;32;20373;-61
2021/06/08 03:43:08;;;;;;;0.50;0.43;;;18.00;99.90;;;;;;4401408;32;20450;-61
2021/06/08 03:45:34;;;;;;;0.62;0.62;;;17.90;99.90;;;;;;4401485;32;20445;-60
2021/06/08 03:48:00;;;;;;;0.57;0.52;;;17.80;99.90;;;;;;4415514;32;20066;-60
2021/06/08 03:50:25;;;;;;;1.17;0.70;;;17.80;99.90;;;;;;4415055;32;20065;-60
2021/06/08 03:52:51;;;;;;;1.83;0.50;;;17.80;99.90;;;;;;4415874;32;20070;-59
2021/06/08 03:55:25;;;;;;;27.20;1.42;;;17.80;99.90;;;;;;4415270;32;20065;-61
2021/06/08 03:57:55;;;;;;;1.37;0.77;;;17.80;99.90;;;;;;4401442;32;20069;-61
2021/06/08 04:00:23;;;;;;;1.05;0.50;;;17.80;99.90;;;;;;4401395;32;20116;-60
2021/06/08 04:02:49;;;;;;;6.22;0.50;;;17.60;99.90;;;;;;4400587;32;20128;-60
2021/06/08 04:05:16;;;;;;;0.40;0.40;;;17.60;99.90;;;;;;4400503;32;20073;-57
2021/06/08 04:07:45;;;;;;;1.23;1.02;;;17.60;99.90;;;;;;4402009;32;20094;-61
2021/06/08 04:10:18;;;;;;;2.12;0.90;;;17.80;99.90;;;;;;4401037;32;20077;-61
2021/06/08 04:12:44;;;;;;;7.25;2.40;;;17.80;99.90;;;;;;4405637;32;20128;-61
2021/06/08 04:15:10;;;;;;;0.60;0.60;;;17.90;99.90;;;;;;4415136;32;20522;-60
2021/06/08 04:17:36;;;;;;;0.65;0.60;;;18.10;99.90;;;;;;4419016;32;20074;-59
2021/06/08 04:20:04;;;;;;;1.10;0.95;;;18.10;99.90;;;;;;4400538;32;20090;-61
2021/06/08 04:22:33;;;;;;;0.65;0.50;;;18.10;99.90;;;;;;4401160;32;20106;-61
2021/06/08 04:24:59;;;;;;;1.27;0.75;;;18.00;99.90;;;;;;4413513;32;20131;-60
2021/06/08 04:27:27;;;;;;;1.42;0.75;;;18.00;99.90;;;;;;4413061;32;20073;-61
2021/06/08 04:29:53;;;;;;;4.28;0.40;;;18.00;99.90;;;;;;4399460;32;20065;-60
2021/06/08 04:32:19;;;;;;;0.30;0.30;;;18.10;99.90;;;;;;4399258;32;20069;-60
2021/06/08 04:34:49;;;;;;;0.20;0.20;;;18.20;99.90;;;;;;4400545;32;20611;-60
2021/06/08 04:37:15;;;;;;;0.57;0.57;;;18.20;99.90;;;;;;4388257;32;20190;-60
2021/06/08 04:39:41;;;;;;;0.60;0.60;;;18.30;99.90;;;;;;4413152;32;20073;-60
2021/06/08 04:42:09;;;;;;;2.72;1.30;;;18.40;99.90;;;;;;4400523;32;20069;-60
2021/06/08 04:44:34;;;;;;;0.32;0.32;;;18.40;99.90;;;;;;4398584;32;20061;-61
2021/06/08 04:47:00;;;;;;;1.80;0.62;;;18.50;99.90;;;;;;4413327;32;20106;-61
2021/06/08 04:49:25;;;;;;;0.55;0.55;;;18.50;99.90;;;;;;4413685;32;20069;-60
2021/06/08 04:51:51;;;;;;;4.15;1.60;;;18.50;99.90;;;;;;4414313;32;20089;-59
2021/06/08 04:54:25;;;;;;;0.68;0.43;;;18.60;99.90;;;;;;4417536;32;20073;-59
2021/06/08 04:56:51;;;;;;;0.30;0.30;;;18.60;99.90;;;;;;4400557;32;20077;-61
2021/06/08 04:59:20;;;;;;;1.65;0.82;;;18.70;99.90;;;;;;4400396;32;20094;-59
2021/06/08 05:01:48;;;;;;;3.10;1.25;;;18.80;99.90;;;;;;4420737;32;20088;-61
2021/06/08 05:04:17;;;;;;;0.50;0.50;;;18.90;99.90;;;;;;4419663;32;20507;-60
2021/06/08 05:06:48;;;;;;;2.85;1.08;;;18.80;99.90;;;;;;4407472;32;20089;-61
2021/06/08 05:09:18;;;;;;;1.37;0.95;;;18.80;99.90;;;;;;4407426;32;20065;-60
2021/06/08 05:11:50;;;;;;;0.60;0.60;;;19.00;99.90;;;;;;4420784;32;20127;-60
2021/06/08 05:14:16;;;;;;;0.75;0.57;;;19.00;99.90;;;;;;4420659;32;20428;-58
2021/06/08 05:16:44;;;;;;;0.68;0.68;;;19.00;99.90;;;;;;4413964;32;20555;-60
2021/06/08 05:19:11;;;;;;;15.75;1.35;;;19.00;99.90;;;;;;4415593;32;20077;-61
2021/06/08 05:21:38;;;;;;;0.40;0.40;;;19.00;99.90;;;;;;4405902;32;20085;-61
2021/06/08 05:24:05;;;;;;;1.37;1.05;;;19.10;99.90;;;;;;4417397;32;20077;-59
2021/06/08 05:26:31;;;;;;;0.73;0.73;;;19.20;99.90;;;;;;4396130;32;20102;-61
2021/06/08 05:28:57;;;;;;;0.57;0.50;;;19.30;99.90;;;;;;4414301;32;20085;-60
2021/06/08 05:31:23;;;;;;;0.60;0.60;;;19.40;99.90;;;;;;4400615;32;21491;-61
2021/06/08 05:33:56;;;;;;;0.62;0.50;;;19.40;99.90;;;;;;4415152;32;20073;-60
2021/06/08 05:36:21;;;;;;;0.85;0.70;;;19.50;99.90;;;;;;4410733;32;20131;-60
2021/06/08 05:38:50;;;;;;;0.82;0.57;;;19.60;99.90;;;;;;4420616;32;20077;-60
2021/06/08 05:41:15;;;;;;;2.20;0.65;;;19.70;99.90;;;;;;4408168;32;20176;-60
2021/06/08 05:43:42;;;;;;;3.40;0.82;;;19.70;99.90;;;;;;4418524;32;20120;-59
2021/06/08 05:46:09;;;;;;;0.50;0.50;;;19.80;99.90;;;;;;4406049;32;20081;-57
2021/06/08 05:48:36;;;;;;;0.30;0.30;;;19.90;99.90;;;;;;4405288;32;20523;-61
2021/06/08 05:51:03;;;;;;;1.67;1.02;;;19.90;99.60;;;;;;4396014;32;20535;-60
2021/06/08 05:53:29;;;;;;;0.75;0.60;;;20.10;99.70;;;;;;4421820;32;20156;-59
2021/06/08 05:55:57;;;;;;;0.30;0.30;;;20.10;99.60;;;;;;4402319;32;20085;-58
2021/06/08 05:58:25;;;;;;;0.73;0.60;;;20.20;99.60;;;;;;4421059;32;20217;-57
2021/06/08 06:00:52;;;;;;;0.37;0.37;;;20.20;99.00;;;;;;4415892;32;20069;-60
2021/06/08 06:03:18;;;;;;;0.50;0.50;;;20.40;98.90;;;;;;4397742;32;20102;-59
2021/06/08 06:05:46;;;;;;;2.72;1.15;;;20.40;98.20;;;;;;4416808;32;20530;-61
2021/06/08 06:08:12;;;;;;;1.60;0.60;;;20.50;97.90;;;;;;4414418;32;20074;-62
2021/06/08 06:10:38;;;;;;;0.52;0.52;;;20.70;97.90;;;;;;4427555;32;20061;-59
2021/06/08 06:13:05;;;;;;;0.40;0.40;;;20.80;98.20;;;;;;4402577;32;20128;-59
2021/06/08 06:15:32;;;;;;;3.47;0.85;;;20.70;97.70;;;;;;4415547;32;20513;-59
2021/06/08 06:17:58;;;;;;;0.43;0.43;;;20.80;97.50;;;;;;4424296;32;20070;-60
2021/06/08 06:20:24;;;;;;;0.30;0.30;;;20.90;97.40;;;;;;4420614;32;20082;-59
2021/06/08 06:22:50;;;;;;;0.75;0.75;;;21.00;97.60;;;;;;4409518;32;20077;-59
2021/06/08 06:25:17;;;;;;;1.75;0.73;;;21.10;97.20;;;;;;4419305;32;20085;-60
2021/06/08 06:27:43;;;;;;;0.55;0.50;;;21.10;97.00;;;;;;4405739;32;20081;-61
2021/06/08 06:30:13;;;;;;;0.50;0.50;;;21.20;97.10;;;;;;4419542;32;20586;-60
2021/06/08 06:32:39;;;;;;;0.75;0.50;;;21.30;97.10;;;;;;4406170;32;20498;-59
2021/06/08 06:35:06;;;;;;;1.08;0.70;;;21.30;96.60;;;;;;4421359;32;20112;-59
2021/06/08 06:37:32;;;;;;;0.47;0.47;;;21.40;96.20;;;;;;4395775;32;20085;-61
2021/06/08 06:39:59;;;;;;;0.60;0.60;;;21.50;96.40;;;;;;4415767;32;20094;-59
2021/06/08 06:42:29;;;;;;;0.65;0.55;;;21.60;96.00;;;;;;4390645;32;20124;-60
2021/06/08 06:44:56;;;;;;;0.55;0.35;;;21.80;96.10;;;;;;4416975;32;20078;-59
2021/06/08 06:47:22;;;;;;;0.20;0.20;;;21.80;96.00;;;;;;4417145;32;20108;-60
2021/06/08 06:49:48;;;;;;;0.57;0.57;;;21.80;95.70;;;;;;4412457;32;20148;-59
2021/06/08 06:52:14;;;;;;;0.93;0.82;;;21.90;95.30;;;;;;4416927;32;20455;-59
2021/06/08 06:54:40;;;;;;;1.27;0.98;;;22.00;95.40;;;;;;4404153;32;20128;-59
2021/06/08 06:57:06;;;;;;;2.50;1.23;;;22.10;95.20;;;;;;4422737;32;20085;-60
2021/06/08 06:59:32;;;;;;;0.70;0.60;;;22.10;94.40;;;;;;4404903;32;20142;-59
2021/06/08 07:01:58;;;;;;;1.30;0.60;;;22.10;94.40;;;;;;4418513;32;20576;-58
2021/06/08 07:04:25;;;;;;;9.88;1.65;;;22.30;94.60;;;;;;4403169;32;20066;-58
2021/06/08 07:06:52;;;;;;;0.32;0.32;;;22.40;94.10;;;;;;4407079;32;20077;-59
2021/06/08 07:09:23;;;;;;;0.65;0.65;;;22.50;93.70;;;;;;4411229;32;20425;-59
2021/06/08 07:11:50;;;;;;;0.98;0.62;;;22.50;93.40;;;;;;4420129;32;20086;-60
2021/06/08 07:14:16;;;;;;;0.60;0.47;;;22.60;93.50;;;;;;4423381;32;20072;-59
2021/06/08 07:16:42;;;;;;;3.00;0.52;;;22.70;93.10;;;;;;4426081;32;20511;-61
2021/06/08 07:19:08;;;;;;;0.43;0.43;;;22.70;92.70;;;;;;4418099;32;20070;-59
2021/06/08 07:21:33;;;;;;;0.70;0.70;;;22.80;92.20;;;;;;4407522;32;20217;-60
2021/06/08 07:24:00;;;;;;;0.60;0.55;;;22.90;92.20;;;;;;4421138;32;20388;-60
2021/06/08 07:26:27;;;;;;;0.30;0.30;;;23.00;91.80;;;;;;4421550;32;20130;-59
2021/06/08 07:28:54;;;;;;;1.60;1.00;;;23.10;91.50;;;;;;4424548;32;20070;-57
2021/06/08 07:31:29;;;;;;;0.40;0.40;;;23.20;91.20;;;;;;4389715;32;20399;-59
2021/06/08 07:34:03;;;;;;;0.50;0.50;;;23.20;88.40;;;;;;4404701;32;20061;-58
2021/06/08 07:36:45;;;;;;;0.55;0.55;;;23.20;90.30;;;;;;4416938;32;20428;-59
2021/06/08 07:39:26;;;;;;;0.65;0.60;;;23.40;91.10;;;;;;4419622;32;20073;-57
2021/06/08 07:42:01;;;;;;;0.30;0.30;;;23.60;90.40;;;;;;4412095;32;20081;-60
2021/06/08 07:44:30;;;;;;;0.50;0.50;;;23.80;90.40;;;;;;4427256;32;20518;-59
2021/06/08 07:46:59;;;;;;;1.70;0.80;;;23.90;89.10;;;;;;4414629;32;20515;-60
2021/06/08 07:49:26;;;;;;;0.50;0.43;;;24.00;87.00;;;;;;4403929;32;20079;-59
2021/06/08 07:51:52;;;;;;;0.30;0.30;;;24.10;87.70;;;;;;4416084;32;20482;-55
2021/06/08 07:54:21;;;;;;;6.97;1.10;;;24.20;87.50;;;;;;4413774;32;20068;-60
2021/06/08 07:56:47;;;;;;;0.20;0.20;;;24.00;85.20;;;;;;4415177;32;20137;-59
2021/06/08 07:59:15;;;;;;;0.65;0.65;;;24.10;81.20;;;;;;4419799;32;20062;-59
2021/06/08 08:01:41;;;;;;;0.40;0.40;;;24.20;80.00;;;;;;4418389;32;20082;-60
2021/06/08 08:04:10;;;;;;;0.28;0.28;;;24.40;80.80;;;;;;4402984;32;20621;-59
2021/06/08 08:06:36;;;;;;;0.30;0.30;;;24.50;81.00;;;;;;4394407;32;20565;-59
2021/06/08 08:09:04;;;;;;;0.10;0.10;;;24.70;80.20;;;;;;4397190;32;20125;-59
2021/06/08 08:11:31;;;;;;;0.35;0.35;;;24.90;79.70;;;;;;4411018;32;21025;-58
2021/06/08 08:13:58;;;;;;;0.40;0.40;;;25.10;78.30;;;;;;4407998;32;20081;-60
2021/06/08 08:16:24;;;;;;;0.88;0.62;;;25.30;79.10;;;;;;4401791;32;20082;-59
2021/06/08 08:18:52;;;;;;;0.20;0.20;;;25.30;78.80;;;;;;4417893;32;20066;-60
2021/06/08 08:21:19;;;;;;;2.03;0.95;;;25.30;79.00;;;;;;4417923;32;20475;-60
2021/06/08 08:23:45;;;;;;;0.22;0.22;;;25.30;75.00;;;;;;4424704;32;20076;-58
2021/06/08 08:26:12;;;;;;;0.60;0.30;;;25.30;75.90;;;;;;4406361;32;20088;-60
2021/06/08 08:28:39;;;;;;;0.35;0.35;;;25.20;75.40;;;;;;4405495;32;20083;-60
2021/06/08 08:31:09;;;;;;;0.60;0.60;;;25.30;75.90;;;;;;4416603;32;20062;-60
2021/06/08 08:33:36;;;;;;;0.10;0.10;;;25.40;74.90;;;;;;4405158;32;20084;-60
2021/06/08 08:36:02;;;;;;;0.43;0.40;;;25.60;73.30;;;;;;4407088;32;20100;-60
2021/06/08 08:38:29;;;;;;;0.32;0.28;;;25.60;73.50;;;;;;4422075;32;20165;-58
2021/06/08 08:41:00;;;;;;;0.28;0.25;;;25.70;73.90;;;;;;4406989;32;20515;-59
2021/06/08 08:43:26;;;;;;;0.40;0.40;;;25.80;74.50;;;;;;4415057;32;20073;-59
2021/06/08 08:45:52;;;;;;;0.30;0.30;;;25.80;73.90;;;;;;4412218;32;20584;-60
2021/06/08 08:48:21;;;;;;;0.20;0.20;;;25.80;73.80;;;;;;4398666;32;20069;-57
2021/06/08 08:50:48;;;;;;;0.70;0.70;;;25.90;73.10;;;;;;4403964;32;20691;-58
2021/06/08 08:53:18;;;;;;;0.37;0.37;;;26.00;73.00;;;;;;4408585;32;20119;-59
2021/06/08 08:55:45;;;;;;;0.40;0.40;;;25.80;71.80;;;;;;4390855;32;20072;-59
2021/06/08 08:58:12;;;;;;;0.40;0.40;;;25.90;73.00;;;;;;4411396;32;20176;-59
2021/06/08 09:00:37;;;;;;;0.32;0.32;;;26.10;72.00;;;;;;4400199;32;20486;-58
2021/06/08 09:03:05;;;;;;;1.37;0.65;;;26.10;70.70;;;;;;4413282;32;20077;-59
2021/06/08 09:05:37;;;;;;;0.30;0.30;;;26.10;69.40;;;;;;4401364;32;20072;-60
2021/06/08 09:08:04;;;;;;;0.32;0.32;;;26.20;69.40;;;;;;4402823;32;20106;-59
2021/06/08 09:10:32;;;;;;;0.25;0.25;;;26.30;70.40;;;;;;4398065;32;20392;-59
2021/06/08 09:12:57;;;;;;;0.62;0.52;;;26.40;69.70;;;;;;4398441;32;20058;-59
2021/06/08 09:15:23;;;;;;;2.28;0.90;;;26.50;68.70;;;;;;4416837;32;20078;-59
2021/06/08 09:17:54;;;;;;;0.30;0.30;;;26.50;69.40;;;;;;4414734;32;20535;-59
2021/06/08 09:20:20;;;;;;;;;;;26.40;69.10;;;;;;4404030;32;20081;-57
2021/06/08 09:22:52;;;;;;;0.47;0.47;;;26.50;69.70;;;;;;4412181;32;19949;-59
2021/06/08 09:25:39;;;;;;;0.20;0.20;;;26.50;71.30;;;;;;4396608;32;20078;-60
2021/06/08 09:28:20;;;;;;;0.35;0.32;;;26.50;70.00;;;;;;4400233;32;20572;-59
2021/06/08 09:30:48;;;;;;;0.20;0.20;;;26.50;71.70;;;;;;4414488;32;20466;-61
2021/06/08 09:33:24;;;;;;;0.20;0.20;;;26.30;70.00;;;;;;4395342;32;20084;-59
2021/06/08 09:35:52;;;;;;;0.22;0.22;;;26.40;71.60;;;;;;4390883;32;20090;-59
2021/06/08 09:38:17;;;;;;;0.30;0.30;;;26.50;70.30;;;;;;4386131;32;20310;-59
2021/06/08 09:40:43;;;;;;;0.20;0.20;;;26.70;70.80;;;;;;4412695;32;73866;-57
2021/06/08 09:43:12;;;;;;;0.62;0.50;;;26.80;68.50;;;;;;4413946;32;20518;-59
2021/06/08 09:45:41;;;;;;;0.50;0.50;;;26.60;69.40;;;;;;4397821;32;20069;-58
2021/06/08 09:48:07;;;;;;;;;;;26.60;69.60;;;;;;4412015;32;20072;-59
2021/06/08 09:50:42;;;;;;;0.28;0.28;;;26.90;69.40;;;;;;4395379;32;20556;-59
2021/06/08 09:53:18;;;;;;;0.20;0.20;;;27.00;68.70;;;;;;4395391;32;20061;-60
2021/06/08 09:56:02;;;;;;;2.17;0.75;;;27.30;69.40;;;;;;4408145;32;20101;-59
2021/06/08 09:58:30;;;;;;;0.68;0.50;;;27.40;69.20;;;;;;4389985;32;20066;-59
2021/06/08 10:01:19;;;;;;;0.45;0.43;;;27.40;69.10;;;;;;4393963;32;21161;-59
2021/06/08 10:03:50;;;;;;;0.70;0.65;;;27.60;67.30;;;;;;4405151;32;20069;-59
2021/06/08 10:06:20;;;;;;;0.73;0.52;;;27.60;66.70;;;;;;4416593;32;20092;-59
2021/06/08 10:09:04;;;;;;;0.50;0.50;;;27.60;66.90;;;;;;4395289;32;20492;-60
2021/06/08 10:11:33;;;;;;;0.28;0.28;;;27.70;67.20;;;;;;4400109;32;20471;-60
2021/06/08 10:14:19;;;;;;;0.95;0.57;;;27.90;66.90;;;;;;4399549;32;20078;-56
2021/06/08 10:16:58;;;;;;;0.45;0.30;;;28.00;66.00;;;;;;4401054;32;20081;-59
2021/06/08 10:19:25;;;;;;;0.43;0.30;;;27.90;66.10;;;;;;4408785;32;20076;-59
2021/06/08 10:21:51;;;;;;;0.43;0.43;;;27.80;66.70;;;;;;4383351;32;20081;-59
2021/06/08 10:24:19;;;;;;;0.25;0.25;;;27.70;66.10;;;;;;4393888;32;20856;-59
2021/06/08 10:26:51;;;;;;;0.30;0.30;;;27.80;67.80;;;;;;4408131;32;20077;-60
2021/06/08 10:29:19;;;;;;;0.20;0.20;;;28.00;68.10;;;;;;4393187;32;20110;-59
2021/06/08 10:31:45;;;;;;;2.67;0.50;;;28.40;68.00;;;;;;4408793;32;20209;-59
2021/06/08 10:34:12;;;;;;;0.40;0.40;;;28.70;67.40;;;;;;4409379;32;20537;-59
2021/06/08 10:36:40;;;;;;;0.28;0.28;;;28.50;67.50;;;;;;4411031;32;20097;-58
2021/06/08 10:39:08;;;;;;;1.40;0.62;;;28.10;66.90;;;;;;4383056;32;20074;-61
2021/06/08 10:41:35;;;;;;;1.10;0.40;;;28.10;67.70;;;;;;4395345;32;20077;-58
2021/06/08 10:44:02;;;;;;;0.28;0.28;;;28.00;67.60;;;;;;4393147;32;20441;-58
2021/06/08 10:46:32;;;;;;;2.55;0.70;;;27.90;69.50;;;;;;4408197;32;20085;-58
2021/06/08 10:48:59;;;;;;;;;;;28.10;68.30;;;;;;4409962;32;20335;-60
2021/06/08 10:51:24;;;;;;;0.22;0.22;;;28.10;68.50;;;;;;4405379;32;20351;-60
2021/06/08 10:53:56;;;;;;;0.40;0.40;;;28.00;68.50;;;;;;4415618;32;20065;-60
2021/06/08 10:56:30;;;;;;;0.15;0.15;;;27.90;68.60;;;;;;4413612;32;20082;-61
2021/06/08 10:58:59;;;;;;;0.50;0.50;;;27.60;67.90;;;;;;4398081;32;20094;-60
2021/06/08 11:01:42;;;;;;;0.40;0.40;;;27.70;67.30;;;;;;4401307;32;20152;-60
2021/06/08 11:04:11;;;;;;;0.43;0.32;;;27.80;67.10;;;;;;4387130;32;20063;-60
2021/06/08 11:06:49;;;;;;;0.20;0.20;;;28.10;68.10;;;;;;4400346;32;20110;-60
2021/06/08 11:09:17;;;;;;;0.40;0.40;;;28.30;67.70;;;;;;4400470;32;20050;-59
2021/06/08 11:12:08;;;;;;;1.23;0.50;;;28.20;67.50;;;;;;4402399;32;20069;-60
2021/06/08 11:14:39;;;;;;;0.98;0.57;;;28.30;68.60;;;;;;4411864;32;20126;-60
2021/06/08 11:17:06;;;;;;;0.68;0.68;;;29.00;67.00;;;;;;4400451;32;20150;-60
2021/06/08 11:19:54;;;;;;;0.68;0.50;;;29.10;66.80;;;;;;4391848;32;20132;-60
2021/06/08 11:22:43;;;;;;;0.20;0.20;;;28.70;66.40;;;;;;4401290;32;20050;-60
2021/06/08 11:25:33;;;;;;;0.40;0.30;;;28.40;67.80;;;;;;4403837;32;20065;-59
2021/06/08 11:28:04;;;;;;;11.13;0.73;;;28.30;67.20;;;;;;4398848;32;20077;-58
2021/06/08 11:30:37;;;;;;;0.20;0.20;;;28.30;69.00;;;;;;4401941;32;20132;-60
2021/06/08 11:33:08;;;;;;;5.82;1.60;;;28.00;69.80;;;;;;4416022;32;20589;-60
2021/06/08 11:35:39;;;;;;;0.10;0.10;;;27.70;71.20;;;;;;4417927;32;20090;-59
2021/06/08 11:38:34;;;;;;;0.88;0.40;;;27.60;71.40;;;;;;4420073;32;20056;-59
2021/06/08 11:41:04;;;;;;;0.20;0.20;;;27.30;73.00;;;;;;4413701;32;20120;-58
2021/06/08 11:43:32;;;;;;;0.30;0.30;;;27.40;74.20;;;;;;4413427;32;20122;-59
2021/06/08 11:46:11;;;;;;;0.55;0.50;;;28.30;72.50;;;;;;4421711;32;20065;-60
2021/06/08 11:48:43;;;;;;;0.65;0.32;;;28.40;71.40;;;;;;4407567;32;20081;-60
2021/06/08 11:51:21;;;;;;;0.30;0.30;;;28.00;72.40;;;;;;4408576;32;20061;-60
2021/06/08 11:54:09;;;;;;;8.52;0.80;;;27.70;72.50;;;;;;4420547;32;20088;-60
2021/06/08 11:57:00;;;;;;;0.85;0.60;;;27.40;73.80;;;;;;4410035;32;20065;-60
2021/06/08 11:59:28;;;;;;;0.28;0.20;;;27.20;76.00;;;;;;4407603;32;20073;-60
2021/06/08 12:01:57;;;;;;;0.50;0.47;;;27.00;74.20;;;;;;4416592;32;20365;-60
2021/06/08 12:04:25;;;;;;;1.55;0.32;;;26.90;75.30;;;;;;4406208;32;20557;-60
2021/06/08 12:07:02;;;;;;;0.30;0.30;;;26.90;75.30;;;;;;4403969;32;20117;-61
2021/06/08 12:09:31;;;;;;;6.32;1.23;;;26.80;76.60;;;;;;4414941;32;20112;-59
2021/06/08 12:11:58;;;;;;;0.75;0.40;;;27.00;76.70;;;;;;4409745;32;20633;-59
2021/06/08 12:14:25;;;;;;;0.47;0.45;;;27.20;74.70;;;;;;4394730;32;20105;-58
2021/06/08 12:16:52;;;;;;;0.10;0.10;;;27.30;75.50;;;;;;4415764;32;20602;-61
2021/06/08 12:19:24;;;;;;;0.17;0.17;;;27.60;76.50;;;;;;4416716;32;20062;-59
2021/06/08 12:21:49;;;;;;;0.52;0.45;;;28.60;73.20;;;;;;4407619;32;20081;-60
2021/06/08 12:24:17;;;;;;;0.40;0.22;;;29.90;70.20;;;;;;4425558;32;20085;-60
2021/06/08 12:26:55;;;;;;;0.20;0.20;;;30.60;67.50;;;;;;4405327;32;20527;-61
2021/06/08 12:29:21;;;;;;;0.45;0.30;;;30.30;67.80;;;;;;4392294;32;20090;-60
2021/06/08 12:31:58;;;;;;;14.80;0.45;;;30.30;68.20;;;;;;4392876;32;20466;-58
2021/06/08 12:34:25;;;;;;;0.22;0.15;;;30.70;67.80;;;;;;4404161;32;20085;-59
2021/06/08 12:36:53;;;;;;;0.73;0.40;;;31.20;66.40;;;;;;4410344;32;20628;-61
2021/06/08 12:39:26;;;;;;;0.20;0.20;;;31.30;65.10;;;;;;4410784;32;20108;-59
2021/06/08 12:41:52;;;;;;;0.30;0.30;;;31.10;64.60;;;;;;4392177;32;20074;-57
2021/06/08 12:44:26;;;;;;;0.20;0.20;;;30.70;65.00;;;;;;4415714;32;20069;-59
2021/06/08 12:46:52;;;;;;;0.20;0.20;;;30.50;66.10;;;;;;4413119;32;20090;-60
2021/06/08 12:49:20;;;;;;;0.80;0.40;;;30.30;65.50;;;;;;4402409;32;20504;-61
2021/06/08 12:51:52;;;;;;;0.52;0.22;;;30.30;65.60;;;;;;4416306;32;20061;-60
2021/06/08 12:54:39;;;;;;;4.28;1.10;;;30.90;64.20;;;;;;4422845;32;20065;-59
2021/06/08 12:57:07;;;;;;;0.57;0.28;;;31.80;60.50;;;;;;4402671;32;20137;-60